Aérodrome :
LOGIN :

S'inscrire | Disclaimer

   EN    FR    IT 

 










Légende :    VFR   VFR Marginal   IFR   IFR Intensif   IFR Très Intensif
Visi : 
Plafond : 
>= 8 km
>= 3000ft
5 à 8 km
1000 à 3000 ft
1500m à 5 km
500 à 1000 ft
800 à 1500m
200 à 500 ft
< 800m
< 200 ft
Symboles :   Orages  Brouillard  Fortes neiges  Fortes précipitations  Vent > 20 kt
SIGMETs :   Divers  Orages  Givrage  Turbulence  Onde Orograph.  Cendres Volcan.







- Altitude de l'aérodrome : 102 ft
- Code IATA : EXT
- Voir les cartes d'approche


EGTE - Exeter

DERNIER METAR :
  • 161450Z 18012KT 6000 -DZ FEW004 BKN010 10/10 Q1020

METARs EXPIRÉS :
  • 161420Z 17010KT 7000 FEW004 BKN017 11/10 Q1021
  • 161350Z 17011KT 5000 BR SCT004 BKN010 10/10 Q1022
  • 161250Z 17011KT 4000 BR SCT003 BKN010 10/10 Q1022
  • 161220Z 17012KT 6000 FEW003 BKN012 11/10 Q1022

TAF TAF EGTE
Valide du 16 à 15h jusqu'au 17 à 00h UTC


161401Z 1615/1624 16011KT 9999 SCT003 BKN015
BECMG 1615/1618 5000 BR BKN005
TEMPO 1615/1621 2000 DZ BKN002
PROB30
TEMPO 1615/1622 0900 BCFG BKN001
PROB40 1622/1624 9999 NSW FEW020
Pas de NOTAMs connus pour ce terrain.



MET'MAP, la Météo Aéronautique d'un coup d'oeil ! - Copyright ORBIFLY Décembre 2007 - Disclaimer

ORBIFLY MET'MAP TEAM :

Programmation & Développement : Alexandra Zaïnal
Conception & Développement : Baudouin d'Aumeries
Co-Programmation & Développement : Marc-Olivier Méhu
Soutien technique & logistique : Manuel Goepfert

Contact : metmap@orbifly.com




SOURCES & CREDITS :

   NOAA